Time;durP1;ratioP1;P1;durP2;ratioP2;P2;SDS_P1;SDS_P2;PMS_P1;PMS_P2;Temp;Humidity;BMP_temperature;BMP_pressure;BME280_temperature;BME280_humidity;BME280_pressure;Samples;Min_cycle;Max_cycle;Signal;HPM_P1;HPM_P2
2022/01/24 00:01:47;;;;;;;26.20;12.40;;;7.10;99.90;;;;;;5069559;28;20249;-77
2022/01/24 00:04:13;;;;;;;28.37;12.80;;;7.10;99.90;;;;;;5069820;28;20241;-77
2022/01/24 00:06:40;;;;;;;27.20;13.10;;;7.10;99.90;;;;;;5055869;28;20227;-76
2022/01/24 00:09:06;;;;;;;30.13;13.17;;;7.00;99.90;;;;;;5053046;28;20242;-76
2022/01/24 00:28:04;;;;;;;28.27;14.50;;;7.10;99.90;;;;;;5034675;28;20192;-77
2022/01/24 00:30:30;;;;;;;22.03;12.13;;;7.10;99.90;;;;;;5052114;28;20183;-77
2022/01/24 00:32:56;;;;;;;25.43;12.53;;;7.10;99.90;;;;;;5053684;28;20214;-77
2022/01/24 00:35:22;;;;;;;22.43;11.77;;;7.10;99.90;;;;;;5053705;28;20216;-76
2022/01/24 00:37:47;;;;;;;22.63;11.57;;;7.20;99.90;;;;;;5052634;28;20207;-77
2022/01/24 00:40:13;;;;;;;22.67;12.67;;;7.20;99.90;;;;;;5054603;28;20219;-79
2022/01/24 00:45:14;;;;;;;23.73;11.57;;;7.10;99.90;;;;;;5047825;28;20463;-77
2022/01/24 00:55:42;;;;;;;21.07;11.40;;;7.10;99.90;;;;;;5037669;28;20247;-77
2022/01/24 00:58:07;;;;;;;22.30;11.10;;;7.10;99.90;;;;;;5033060;28;20219;-77
2022/01/24 01:00:34;;;;;;;24.47;12.17;;;7.10;99.90;;;;;;5032792;28;20177;-77
2022/01/24 01:02:59;;;;;;;21.17;11.13;;;7.10;99.90;;;;;;5033288;28;20216;-77
2022/01/24 01:06:11;;;;;;;20.00;11.57;;;7.20;99.90;;;;;;5033332;28;20242;-77
2022/01/24 01:18:50;;;;;;;21.83;11.57;;;7.20;99.90;;;;;;5032875;28;20172;-76
2022/01/24 01:21:16;;;;;;;23.27;12.97;;;7.30;99.90;;;;;;5032246;28;20212;-77
2022/01/24 01:23:47;;;;;;;22.67;12.33;;;7.30;99.90;;;;;;5048207;28;20602;-77
2022/01/24 01:26:24;;;;;;;22.20;13.13;;;7.30;99.90;;;;;;5037585;28;20258;-77
2022/01/24 01:28:55;;;;;;;20.93;11.70;;;7.30;99.90;;;;;;5031375;28;20208;-76
2022/01/24 01:31:32;;;;;;;19.83;12.50;;;7.30;99.90;;;;;;5049380;28;20227;-76
2022/01/24 01:34:08;;;;;;;21.43;10.53;;;7.30;99.90;;;;;;5052903;28;20179;-76
2022/01/24 01:37:01;;;;;;;19.80;11.00;;;7.30;99.90;;;;;;5051799;28;20195;-77
2022/01/24 01:53:17;;;;;;;16.77;10.23;;;7.20;99.90;;;;;;5045632;28;20589;-76
2022/01/24 01:55:42;;;;;;;13.93;9.00;;;7.30;99.90;;;;;;5040536;28;20216;-77
2022/01/24 01:58:16;;;;;;;14.27;9.57;;;7.30;99.90;;;;;;5031973;28;20212;-76
2022/01/24 02:00:53;;;;;;;13.87;9.47;;;7.30;99.90;;;;;;5033032;28;20653;-77
2022/01/24 02:03:19;;;;;;;16.20;9.83;;;7.30;99.90;;;;;;5048002;28;20208;-77
2022/01/24 02:05:45;;;;;;;18.90;9.93;;;7.20;99.90;;;;;;5032332;28;20204;-77
2022/01/24 02:08:11;;;;;;;14.83;9.13;;;7.20;99.90;;;;;;5030336;28;20693;-77
2022/01/24 02:10:38;;;;;;;13.80;9.03;;;7.20;99.90;;;;;;5032194;28;20587;-76
2022/01/24 02:13:04;;;;;;;16.70;8.73;;;7.20;99.90;;;;;;5030836;28;20179;-77
2022/01/24 02:15:55;;;;;;;14.77;8.60;;;7.20;99.90;;;;;;5032498;28;20200;-76
2022/01/24 02:18:49;;;;;;;15.50;8.77;;;7.10;99.90;;;;;;5040311;28;20211;-75
2022/01/24 02:21:39;;;;;;;15.10;7.97;;;7.20;99.90;;;;;;5051859;28;20302;-77
2022/01/24 02:24:05;;;;;;;13.47;8.40;;;7.10;99.90;;;;;;5051404;28;20200;-77
2022/01/24 02:26:32;;;;;;;14.40;8.50;;;7.10;99.90;;;;;;5051030;28;20221;-77
2022/01/24 02:29:05;;;;;;;14.37;8.27;;;7.10;99.90;;;;;;5051435;28;20238;-77
2022/01/24 02:31:47;;;;;;;15.57;8.90;;;7.10;99.90;;;;;;5051269;28;20207;-77
2022/01/24 02:34:19;;;;;;;14.73;8.27;;;7.10;99.90;;;;;;5050245;28;20299;-77
2022/01/24 02:36:44;;;;;;;17.37;8.03;;;7.20;99.90;;;;;;5051852;28;20191;-77
2022/01/24 02:39:43;;;;;;;14.03;8.77;;;7.20;99.90;;;;;;5036257;28;20296;-77
2022/01/24 02:50:47;;;;;;;15.13;8.93;;;7.10;99.90;;;;;;4997984;28;20290;-77
2022/01/24 02:53:13;;;;;;;13.50;7.93;;;7.10;99.90;;;;;;5038246;28;20204;-77
2022/01/24 02:55:39;;;;;;;12.97;8.50;;;7.20;99.90;;;;;;5050703;28;20219;-77
2022/01/24 02:58:05;;;;;;;15.17;8.83;;;7.10;99.90;;;;;;5049573;28;20632;-76
2022/01/24 03:00:31;;;;;;;15.90;8.70;;;7.00;99.90;;;;;;5051620;28;20179;-77
2022/01/24 03:02:57;;;;;;;16.47;9.00;;;7.00;99.90;;;;;;5036356;28;20219;-76
2022/01/24 03:05:22;;;;;;;13.37;8.57;;;7.10;99.90;;;;;;5031154;28;20771;-76
2022/01/24 03:07:48;;;;;;;11.83;8.07;;;7.00;99.90;;;;;;5030613;28;20204;-77
2022/01/24 03:10:24;;;;;;;14.53;8.20;;;7.00;99.90;;;;;;5031231;28;20239;-77
2022/01/24 03:12:59;;;;;;;11.87;7.97;;;7.00;99.90;;;;;;5037298;28;20610;-77
2022/01/24 03:15:25;;;;;;;16.57;9.23;;;7.00;99.90;;;;;;5031400;28;20246;-76
2022/01/24 03:17:50;;;;;;;13.27;8.33;;;7.00;99.90;;;;;;5030524;28;20200;-77
2022/01/24 03:20:16;;;;;;;15.23;9.40;;;7.00;99.90;;;;;;5030993;28;20740;-77
2022/01/24 03:22:41;;;;;;;16.60;10.00;;;7.00;99.90;;;;;;5030831;28;20580;-76
2022/01/24 03:25:07;;;;;;;13.47;8.80;;;7.00;99.90;;;;;;5035350;28;20226;-76
2022/01/24 03:27:32;;;;;;;18.13;9.47;;;7.10;99.90;;;;;;5029832;28;20606;-77
2022/01/24 03:29:58;;;;;;;13.60;9.10;;;7.10;99.90;;;;;;5030796;28;20208;-77
2022/01/24 03:32:23;;;;;;;18.00;9.27;;;7.00;99.90;;;;;;5029301;28;20212;-76
2022/01/24 03:34:49;;;;;;;14.03;9.97;;;7.00;99.90;;;;;;5032277;28;20203;-77
2022/01/24 03:37:14;;;;;;;14.03;9.13;;;7.00;99.90;;;;;;5041243;28;20304;-77
2022/01/24 03:39:40;;;;;;;14.17;8.90;;;7.00;99.90;;;;;;5041740;28;20665;-77
2022/01/24 03:42:06;;;;;;;16.87;8.73;;;7.00;99.90;;;;;;5042368;28;20223;-77
2022/01/24 03:44:31;;;;;;;14.27;8.57;;;7.00;99.90;;;;;;5045124;28;20264;-77
2022/01/24 03:52:15;;;;;;;11.37;8.20;;;7.00;99.90;;;;;;5050408;28;20219;-77
2022/01/24 03:54:43;;;;;;;16.27;8.67;;;7.00;99.90;;;;;;5042496;28;20192;-77
2022/01/24 03:57:10;;;;;;;14.40;9.47;;;7.00;99.90;;;;;;5042754;28;20250;-77
2022/01/24 03:59:36;;;;;;;14.90;9.60;;;7.00;99.90;;;;;;5044376;28;20681;-77
2022/01/24 04:02:02;;;;;;;13.73;9.90;;;7.00;99.90;;;;;;5046097;28;20222;-77
2022/01/24 04:04:28;;;;;;;14.47;9.30;;;7.00;99.90;;;;;;5045213;28;20234;-77
2022/01/24 04:06:54;;;;;;;16.77;9.90;;;7.00;99.90;;;;;;5044700;28;20196;-76
2022/01/24 04:09:19;;;;;;;15.47;9.87;;;7.00;99.90;;;;;;5042948;28;20670;-77
2022/01/24 04:11:48;;;;;;;14.90;9.93;;;7.00;99.90;;;;;;5044642;28;20306;-77
2022/01/24 04:14:33;;;;;;;20.73;10.77;;;7.00;99.90;;;;;;5047266;28;20218;-77
2022/01/24 04:22:15;;;;;;;19.57;11.00;;;7.00;99.90;;;;;;5046371;28;20246;-77
2022/01/24 04:24:42;;;;;;;17.43;10.67;;;6.90;99.90;;;;;;5043600;28;20180;-76
2022/01/24 04:27:08;;;;;;;22.60;11.77;;;7.00;99.90;;;;;;5041415;28;20216;-77
2022/01/24 04:29:34;;;;;;;17.70;11.27;;;6.90;99.90;;;;;;5041738;28;20208;-76
2022/01/24 04:32:00;;;;;;;18.67;11.77;;;7.00;99.90;;;;;;5046344;28;20206;-77
2022/01/24 04:34:26;;;;;;;21.33;11.60;;;7.00;99.90;;;;;;5043246;28;20207;-76
2022/01/24 04:36:51;;;;;;;19.30;11.73;;;7.00;99.90;;;;;;5044727;28;20190;-76
2022/01/24 04:39:17;;;;;;;22.00;13.13;;;7.00;99.90;;;;;;5042132;28;20260;-76
2022/01/24 04:41:46;;;;;;;22.20;12.10;;;7.00;99.90;;;;;;5043489;28;20262;-76
2022/01/24 04:44:46;;;;;;;18.17;11.23;;;7.00;99.90;;;;;;5045384;28;20242;-77
2022/01/24 04:47:29;;;;;;;17.43;10.90;;;7.00;99.90;;;;;;5047870;28;20734;-76
2022/01/24 04:55:07;;;;;;;17.27;10.83;;;7.00;99.90;;;;;;5045273;28;20238;-76
2022/01/24 04:57:33;;;;;;;16.63;10.70;;;7.00;99.90;;;;;;5043527;28;20587;-76
2022/01/24 05:00:00;;;;;;;18.30;11.17;;;6.90;99.90;;;;;;5041436;28;20246;-76
2022/01/24 05:02:26;;;;;;;19.83;10.97;;;6.90;99.90;;;;;;5041149;28;20217;-76
2022/01/24 05:04:53;;;;;;;17.53;11.00;;;7.00;99.90;;;;;;5040509;28;20247;-76
2022/01/24 05:07:20;;;;;;;16.85;10.15;;;7.00;99.90;;;;;;5042755;28;20329;-77
2022/01/24 05:09:59;;;;;;;17.53;10.77;;;7.00;99.90;;;;;;5053304;28;20258;-76
2022/01/24 05:25:48;;;;;;;14.37;9.50;;;6.80;99.90;;;;;;5041292;28;20601;-76
2022/01/24 05:28:13;;;;;;;17.00;9.53;;;6.80;99.90;;;;;;5038216;28;20215;-76
2022/01/24 05:30:39;;;;;;;17.37;11.07;;;6.80;99.90;;;;;;5042187;28;20271;-76
2022/01/24 05:33:04;;;;;;;15.60;10.00;;;6.80;99.90;;;;;;5047022;28;20692;-76
2022/01/24 05:35:30;;;;;;;14.50;9.47;;;6.90;99.90;;;;;;5041755;28;20219;-76
2022/01/24 05:37:55;;;;;;;14.67;9.87;;;6.80;99.90;;;;;;5043939;28;20273;-76
2022/01/24 05:40:21;;;;;;;13.67;9.63;;;6.80;99.90;;;;;;5042952;28;20204;-73
2022/01/24 05:42:46;;;;;;;14.43;10.03;;;6.80;99.90;;;;;;5034743;28;20203;-76
2022/01/24 05:45:12;;;;;;;13.57;9.03;;;6.80;99.90;;;;;;5051758;28;20191;-76
2022/01/24 05:47:38;;;;;;;12.47;9.10;;;6.70;99.90;;;;;;5040074;28;20235;-74
2022/01/24 05:50:04;;;;;;;19.73;9.47;;;6.70;99.90;;;;;;5040577;28;20219;-76
2022/01/24 05:52:30;;;;;;;16.47;10.43;;;6.80;99.90;;;;;;5042634;28;20854;-76
2022/01/24 05:54:56;;;;;;;14.60;9.10;;;6.70;99.90;;;;;;5051305;28;20262;-76
2022/01/24 05:57:21;;;;;;;14.20;8.90;;;6.70;99.90;;;;;;5080474;23;20246;-73
2022/01/24 05:59:47;;;;;;;12.90;8.97;;;6.70;99.90;;;;;;5073926;28;20616;-74
2022/01/24 06:02:12;;;;;;;13.00;9.33;;;6.80;99.90;;;;;;5092461;28;20259;-73
2022/01/24 06:04:38;;;;;;;16.07;9.93;;;6.80;99.90;;;;;;5083836;28;20703;-73
2022/01/24 06:07:03;;;;;;;14.00;9.20;;;6.80;99.90;;;;;;5091615;28;20270;-74
2022/01/24 06:09:29;;;;;;;15.33;9.27;;;6.70;99.90;;;;;;5092437;28;20182;-73
2022/01/24 06:11:54;;;;;;;12.00;8.73;;;6.70;99.90;;;;;;5092198;28;20198;-73
2022/01/24 06:14:20;;;;;;;15.47;9.20;;;6.70;99.90;;;;;;5092179;28;20238;-74
2022/01/24 06:16:46;;;;;;;14.37;9.53;;;6.70;99.90;;;;;;5091962;28;20214;-73
2022/01/24 06:19:11;;;;;;;18.00;9.73;;;6.70;99.90;;;;;;5091932;28;20218;-73
2022/01/24 06:21:37;;;;;;;14.37;10.00;;;6.70;99.90;;;;;;5080076;28;20670;-73
2022/01/24 06:24:03;;;;;;;14.60;9.90;;;6.70;99.90;;;;;;5071858;28;20199;-73
2022/01/24 06:26:29;;;;;;;16.17;9.47;;;6.80;99.90;;;;;;5071625;28;20265;-74
2022/01/24 06:28:55;;;;;;;18.63;9.87;;;6.70;99.90;;;;;;5071196;28;20207;-74
2022/01/24 06:31:20;;;;;;;15.03;10.10;;;6.70;99.90;;;;;;5071036;28;20217;-73
2022/01/24 06:33:48;;;;;;;16.17;9.60;;;6.70;99.90;;;;;;5077122;28;20642;-73
2022/01/24 06:36:14;;;;;;;14.50;9.63;;;6.70;99.90;;;;;;5097828;28;20570;-74
2022/01/24 06:38:40;;;;;;;14.70;8.73;;;6.70;99.90;;;;;;5077510;28;20695;-74
2022/01/24 06:41:05;;;;;;;17.17;8.37;;;6.70;99.90;;;;;;5092587;28;20273;-74
2022/01/24 06:43:31;;;;;;;11.43;7.70;;;6.70;99.90;;;;;;5091856;28;20709;-75
2022/01/24 06:45:57;;;;;;;12.87;8.33;;;6.60;99.90;;;;;;5092042;28;20237;-76
2022/01/24 06:48:22;;;;;;;10.80;7.80;;;6.60;99.90;;;;;;5091500;28;20226;-76
2022/01/24 06:50:48;;;;;;;13.37;8.63;;;6.60;99.90;;;;;;5086338;28;20349;-73
2022/01/24 06:53:13;;;;;;;12.13;7.90;;;6.60;99.90;;;;;;5053064;28;20214;-74
2022/01/24 06:55:39;;;;;;;12.70;7.67;;;6.60;99.90;;;;;;5053456;28;20630;-74
2022/01/24 06:58:06;;;;;;;12.80;7.83;;;6.70;99.90;;;;;;5052789;28;20175;-74
2022/01/24 07:00:32;;;;;;;12.97;8.23;;;6.60;99.90;;;;;;5053728;28;20203;-74
2022/01/24 07:02:58;;;;;;;11.47;7.83;;;6.60;99.90;;;;;;5070686;28;20629;-74
2022/01/24 07:05:25;;;;;;;13.40;7.87;;;6.60;99.90;;;;;;5070788;28;20576;-75
2022/01/24 07:07:51;;;;;;;12.53;8.43;;;6.60;99.90;;;;;;5070129;28;20695;-75
2022/01/24 07:10:17;;;;;;;13.30;8.97;;;6.60;99.90;;;;;;5071133;28;20229;-74
2022/01/24 07:12:43;;;;;;;13.90;8.53;;;6.60;99.90;;;;;;5053177;28;20171;-75
2022/01/24 07:15:13;;;;;;;14.33;8.60;;;6.60;99.90;;;;;;5070756;28;20268;-75
2022/01/24 07:18:00;;;;;;;16.00;9.83;;;6.60;99.90;;;;;;5070317;28;20242;-74
2022/01/24 07:20:26;;;;;;;18.20;9.07;;;6.60;99.90;;;;;;5070454;28;20252;-72
2022/01/24 07:22:52;;;;;;;20.67;9.70;;;6.50;99.90;;;;;;5070418;28;20222;-75
2022/01/24 07:25:17;;;;;;;16.63;9.03;;;6.50;99.90;;;;;;5071032;28;20305;-75
2022/01/24 07:27:42;;;;;;;17.90;9.43;;;6.50;99.90;;;;;;5070565;28;20195;-73
2022/01/24 07:30:09;;;;;;;16.13;9.27;;;6.60;99.90;;;;;;5070701;28;20214;-75
2022/01/24 07:32:34;;;;;;;16.53;9.47;;;6.60;99.90;;;;;;5070502;28;20234;-75
2022/01/24 07:35:00;;;;;;;16.27;10.07;;;6.60;99.90;;;;;;5052622;28;20238;-75
2022/01/24 07:37:26;;;;;;;17.67;9.53;;;6.60;99.90;;;;;;5070135;28;20628;-76
2022/01/24 07:39:52;;;;;;;17.33;9.33;;;6.60;99.90;;;;;;5052569;28;20227;-75
2022/01/24 07:42:29;;;;;;;16.30;8.30;;;6.60;99.90;;;;;;5052973;28;20248;-74
2022/01/24 07:44:54;;;;;;;16.27;8.47;;;6.60;99.90;;;;;;5052543;28;20214;-75
2022/01/24 07:47:20;;;;;;;12.87;8.10;;;6.70;99.90;;;;;;5070324;28;20719;-73
2022/01/24 07:49:45;;;;;;;12.60;8.47;;;6.70;99.90;;;;;;5061893;28;20618;-73
2022/01/24 07:52:11;;;;;;;11.07;7.03;;;6.80;99.90;;;;;;5052342;28;20233;-73
2022/01/24 07:54:37;;;;;;;11.80;7.20;;;6.90;99.90;;;;;;5070881;28;20185;-74
2022/01/24 07:57:03;;;;;;;11.50;7.10;;;6.90;99.90;;;;;;5070159;28;20211;-74
2022/01/24 07:59:28;;;;;;;10.20;5.87;;;7.00;99.90;;;;;;5069735;28;20213;-73
2022/01/24 08:01:53;;;;;;;13.17;7.07;;;7.10;99.90;;;;;;5056818;28;20214;-74
2022/01/24 08:04:19;;;;;;;11.20;7.23;;;7.20;99.90;;;;;;5090801;28;20642;-73
2022/01/24 08:06:47;;;;;;;12.87;6.23;;;7.40;99.90;;;;;;5090875;28;20255;-74
2022/01/24 08:09:13;;;;;;;11.37;6.63;;;7.30;99.90;;;;;;5072437;28;20206;-74
2022/01/24 08:11:39;;;;;;;10.67;7.20;;;7.30;99.90;;;;;;5090359;28;20702;-74
2022/01/24 08:14:04;;;;;;;9.87;5.53;;;7.20;99.90;;;;;;5072483;28;20229;-76
2022/01/24 08:16:30;;;;;;;11.00;6.73;;;7.20;99.90;;;;;;5090418;28;20282;-74
2022/01/24 08:18:57;;;;;;;11.83;7.70;;;7.20;99.90;;;;;;5071704;28;20257;-75
2022/01/24 08:21:23;;;;;;;12.37;7.33;;;7.20;99.90;;;;;;5081130;28;20255;-74
2022/01/24 08:23:50;;;;;;;10.53;6.37;;;7.30;99.90;;;;;;5072130;28;20233;-73
2022/01/24 08:26:16;;;;;;;10.47;5.73;;;7.30;99.90;;;;;;5072157;28;20206;-75
2022/01/24 08:28:41;;;;;;;11.60;6.43;;;7.30;99.90;;;;;;5071440;28;20206;-75
2022/01/24 08:31:07;;;;;;;11.10;6.30;;;7.30;99.90;;;;;;5076426;28;20213;-74
2022/01/24 08:33:33;;;;;;;10.13;6.23;;;7.40;99.90;;;;;;5095431;28;20534;-72
2022/01/24 08:35:59;;;;;;;9.10;5.80;;;7.40;99.90;;;;;;5094182;28;20690;-74
2022/01/24 08:38:26;;;;;;;11.77;6.93;;;7.50;99.90;;;;;;5093264;28;20755;-74
2022/01/24 08:40:57;;;;;;;12.27;6.63;;;7.60;99.90;;;;;;5093962;28;20209;-74
2022/01/24 08:43:37;;;;;;;12.80;6.27;;;7.60;99.90;;;;;;5093836;28;20742;-75
2022/01/24 08:46:02;;;;;;;10.10;6.27;;;7.50;99.90;;;;;;5093944;28;20608;-76
2022/01/24 08:48:29;;;;;;;13.13;7.13;;;7.60;99.90;;;;;;5093742;28;20185;-73
2022/01/24 08:50:56;;;;;;;11.40;6.93;;;7.60;99.90;;;;;;5087692;28;20210;-74
2022/01/24 08:53:23;;;;;;;10.37;6.37;;;7.70;99.90;;;;;;5055120;28;20215;-74
2022/01/24 08:55:49;;;;;;;10.23;5.70;;;7.90;99.90;;;;;;5073147;28;20217;-73
2022/01/24 08:58:15;;;;;;;9.80;6.37;;;7.90;99.90;;;;;;5072624;28;20214;-74
2022/01/24 09:00:45;;;;;;;11.07;6.90;;;8.10;99.90;;;;;;5073948;28;20190;-72
2022/01/24 09:03:14;;;;;;;11.50;6.40;;;8.10;99.90;;;;;;5055161;28;20218;-73
2022/01/24 09:05:40;;;;;;;9.90;6.10;;;8.10;99.90;;;;;;5055210;28;20321;-72
2022/01/24 09:08:07;;;;;;;10.70;5.83;;;8.10;99.90;;;;;;5072512;28;20230;-74
2022/01/24 09:10:34;;;;;;;15.00;6.60;;;8.20;99.90;;;;;;5072883;28;20623;-73
2022/01/24 09:13:00;;;;;;;9.70;6.10;;;8.10;99.90;;;;;;5086542;28;20232;-74
2022/01/24 09:15:25;;;;;;;11.53;6.73;;;8.20;99.90;;;;;;5066885;28;20215;-74
2022/01/24 09:17:51;;;;;;;9.83;6.73;;;8.20;99.90;;;;;;5072478;28;20207;-75
2022/01/24 09:20:17;;;;;;;12.20;6.20;;;8.10;99.90;;;;;;5073447;28;20217;-74
2022/01/24 09:22:44;;;;;;;14.60;7.37;;;8.10;99.90;;;;;;5072080;28;20290;-74
2022/01/24 09:25:11;;;;;;;12.53;7.23;;;8.20;99.90;;;;;;5054876;28;20206;-74
2022/01/24 09:27:38;;;;;;;12.07;6.63;;;8.20;99.90;;;;;;5083425;28;20202;-74
2022/01/24 09:30:05;;;;;;;12.00;6.83;;;8.30;99.90;;;;;;5074585;28;20558;-74
2022/01/24 09:32:30;;;;;;;11.63;7.00;;;8.30;99.90;;;;;;5064841;28;20645;-74
2022/01/24 09:34:56;;;;;;;11.63;6.90;;;8.30;99.90;;;;;;5054941;28;20207;-74
2022/01/24 09:37:21;;;;;;;11.30;6.90;;;8.30;99.90;;;;;;5072360;28;20293;-73
2022/01/24 09:39:47;;;;;;;11.40;6.33;;;8.50;99.90;;;;;;5076517;28;20195;-71
2022/01/24 09:42:13;;;;;;;12.13;7.87;;;8.50;99.90;;;;;;5094293;28;20206;-72
2022/01/24 09:44:38;;;;;;;13.70;7.53;;;8.60;99.90;;;;;;5094844;28;20206;-75
2022/01/24 09:47:04;;;;;;;11.40;7.53;;;8.60;99.90;;;;;;5095095;28;20214;-73
2022/01/24 09:49:30;;;;;;;11.40;6.77;;;8.70;99.90;;;;;;5094015;28;20198;-74
2022/01/24 09:51:55;;;;;;;11.83;7.33;;;8.70;99.90;;;;;;5080251;28;20175;-74
2022/01/24 09:54:21;;;;;;;11.23;6.83;;;8.70;99.90;;;;;;5065204;28;20250;-74
2022/01/24 09:56:46;;;;;;;10.43;6.43;;;8.70;99.90;;;;;;5094498;28;20786;-74
2022/01/24 09:59:12;;;;;;;14.10;7.40;;;8.80;99.90;;;;;;5087107;28;20214;-74
2022/01/24 10:01:37;;;;;;;13.77;9.07;;;8.80;99.90;;;;;;5075078;28;20264;-75
2022/01/24 10:04:17;;;;;;;12.13;7.60;;;8.70;99.90;;;;;;5055953;28;20694;-74
2022/01/24 10:07:02;;;;;;;11.67;7.73;;;8.70;99.90;;;;;;5075008;28;20710;-75
2022/01/24 10:09:42;;;;;;;11.97;6.97;;;8.70;99.90;;;;;;5055712;28;20225;-74
2022/01/24 10:12:22;;;;;;;12.90;7.13;;;8.60;99.90;;;;;;5074036;28;20295;-74
2022/01/24 10:17:37;;;;;;;12.70;7.17;;;8.40;99.90;;;;;;5073052;28;20263;-74
2022/01/24 10:20:26;;;;;;;11.47;6.30;;;8.40;99.90;;;;;;5073476;28;20199;-75
2022/01/24 10:23:16;;;;;;;10.10;6.80;;;8.30;99.90;;;;;;5064813;28;20660;-75
2022/01/24 10:26:00;;;;;;;7.80;5.13;;;8.30;99.90;;;;;;5071854;28;20232;-74
2022/01/24 10:28:34;;;;;;;8.87;5.53;;;8.20;99.90;;;;;;5053764;28;20213;-75
2022/01/24 10:31:12;;;;;;;7.90;4.97;;;8.00;99.90;;;;;;5053451;28;20663;-74
2022/01/24 10:34:10;;;;;;;8.70;5.70;;;7.90;99.90;;;;;;5053830;28;20707;-74
2022/01/24 10:36:44;;;;;;;9.70;6.03;;;8.10;99.90;;;;;;5054187;28;20214;-73
2022/01/24 10:39:27;;;;;;;9.90;6.23;;;8.20;99.90;;;;;;5053271;28;20217;-75
2022/01/24 10:45:01;;;;;;;10.50;6.47;;;8.40;99.90;;;;;;5071779;28;20628;-74
2022/01/24 10:47:30;;;;;;;6.73;5.00;;;8.40;99.90;;;;;;5053676;28;20211;-74
2022/01/24 10:49:58;;;;;;;8.80;5.53;;;8.30;99.90;;;;;;5053074;28;20253;-73
2022/01/24 10:52:27;;;;;;;9.30;5.57;;;8.30;99.90;;;;;;5053001;28;20217;-74
2022/01/24 10:55:14;;;;;;;7.03;4.67;;;8.40;99.90;;;;;;5053026;28;20171;-75
2022/01/24 10:57:41;;;;;;;10.17;5.63;;;8.80;99.90;;;;;;5071225;28;20206;-74
2022/01/24 11:00:09;;;;;;;8.57;5.40;;;8.80;99.90;;;;;;5070860;28;20219;-74
2022/01/24 11:02:40;;;;;;;9.90;5.83;;;8.80;99.90;;;;;;5070820;28;20639;-74
2022/01/24 11:05:22;;;;;;;10.00;6.23;;;8.80;99.90;;;;;;5071114;28;20203;-74
2022/01/24 11:07:50;;;;;;;9.20;5.97;;;8.60;99.90;;;;;;5052483;28;20214;-73
2022/01/24 11:10:15;;;;;;;7.97;5.23;;;8.60;99.90;;;;;;5053032;28;20234;-74
2022/01/24 11:12:41;;;;;;;9.47;4.87;;;8.50;99.90;;;;;;5071179;28;20664;-74
2022/01/24 11:15:07;;;;;;;8.03;5.10;;;8.40;99.90;;;;;;5070698;28;20316;-74
2022/01/24 11:17:34;;;;;;;7.33;4.90;;;8.30;99.90;;;;;;5070422;28;20222;-74
2022/01/24 11:20:02;;;;;;;8.27;5.40;;;8.20;99.90;;;;;;5070327;28;20207;-74
2022/01/24 11:22:30;;;;;;;9.57;5.63;;;7.90;99.90;;;;;;5070251;28;20211;-74
2022/01/24 11:25:00;;;;;;;10.90;5.80;;;7.80;99.90;;;;;;5052629;28;20262;-74
2022/01/24 11:27:26;;;;;;;10.77;5.83;;;7.90;99.90;;;;;;5053248;28;20947;-74
2022/01/24 11:29:56;;;;;;;10.00;6.17;;;7.80;99.90;;;;;;5070889;28;20214;-74
2022/01/24 11:32:28;;;;;;;10.47;6.00;;;7.60;99.90;;;;;;5052893;28;20206;-75
2022/01/24 11:34:56;;;;;;;10.90;6.27;;;7.60;99.90;;;;;;5070447;28;20289;-74
2022/01/24 11:37:38;;;;;;;10.63;5.40;;;7.60;99.90;;;;;;5070173;28;20214;-77
2022/01/24 11:40:06;;;;;;;9.40;5.60;;;7.50;99.90;;;;;;5070412;28;20182;-74
2022/01/24 11:42:34;;;;;;;7.47;4.73;;;7.40;99.90;;;;;;5070670;28;20198;-74
2022/01/24 11:45:05;;;;;;;7.70;4.53;;;7.40;99.90;;;;;;5070339;28;20199;-74
2022/01/24 11:47:31;;;;;;;7.93;4.97;;;7.40;99.90;;;;;;5070562;28;20686;-75
2022/01/24 11:49:58;;;;;;;7.87;4.50;;;7.40;99.90;;;;;;5052137;28;20205;-74
2022/01/24 11:52:32;;;;;;;6.37;4.00;;;7.50;99.90;;;;;;5070130;28;20260;-73
2022/01/24 11:57:49;;;;;;;7.53;4.60;;;7.50;99.90;;;;;;5083281;23;20640;-76
2022/01/24 12:00:26;;;;;;;6.17;3.87;;;7.50;99.90;;;;;;5065139;28;20711;-76
2022/01/24 12:02:57;;;;;;;6.40;4.20;;;7.50;99.90;;;;;;5068810;28;20206;-77
2022/01/24 12:05:31;;;;;;;6.87;4.10;;;7.50;99.90;;;;;;5073186;28;20297;-74
2022/01/24 12:08:00;;;;;;;6.90;4.60;;;7.40;99.90;;;;;;5072600;28;20198;-76
2022/01/24 12:10:32;;;;;;;7.20;4.60;;;7.50;99.90;;;;;;5072786;28;20695;-76
2022/01/24 12:13:01;;;;;;;7.77;4.30;;;7.50;99.90;;;;;;5074283;28;20232;-76
2022/01/24 12:15:42;;;;;;;5.13;3.70;;;7.50;99.90;;;;;;5074597;28;20174;-76
2022/01/24 12:18:44;;;;;;;4.43;3.43;;;7.50;99.90;;;;;;5073547;28;20576;-76
2022/01/24 12:21:13;;;;;;;8.43;4.67;;;7.50;99.90;;;;;;5047785;28;20727;-76
2022/01/24 12:23:47;;;;;;;7.30;4.50;;;7.60;99.90;;;;;;5053939;28;20220;-77
2022/01/24 12:26:12;;;;;;;5.80;3.47;;;7.60;99.90;;;;;;5052806;28;20218;-75
2022/01/24 12:28:41;;;;;;;6.73;4.00;;;7.40;99.90;;;;;;5052117;28;20573;-76
2022/01/24 12:31:10;;;;;;;7.00;4.50;;;7.40;99.90;;;;;;5052168;28;20294;-77
2022/01/24 12:33:43;;;;;;;6.20;4.07;;;7.30;99.90;;;;;;5053986;28;20207;-77
2022/01/24 12:36:12;;;;;;;7.27;4.57;;;7.30;99.90;;;;;;5053844;28;20294;-77
2022/01/24 12:38:49;;;;;;;7.93;5.27;;;7.30;99.90;;;;;;5051786;28;20311;-77
2022/01/24 12:41:37;;;;;;;11.27;4.90;;;7.20;99.90;;;;;;5053849;28;20246;-77
2022/01/24 12:46:30;;;;;;;7.37;4.53;;;7.30;99.90;;;;;;5053420;28;20215;-77
2022/01/24 12:48:58;;;;;;;9.30;5.10;;;7.20;99.90;;;;;;5051723;28;20209;-78
2022/01/24 12:51:25;;;;;;;6.83;4.83;;;7.30;99.90;;;;;;5062511;28;20253;-77
2022/01/24 12:53:51;;;;;;;7.77;4.43;;;7.30;99.90;;;;;;5073272;28;20210;-78
2022/01/24 12:56:18;;;;;;;7.57;5.30;;;7.30;99.90;;;;;;5073562;28;20207;-77
2022/01/24 12:58:49;;;;;;;10.23;5.37;;;7.20;99.90;;;;;;5072518;28;20347;-77
2022/01/24 13:01:29;;;;;;;7.83;5.13;;;7.30;99.90;;;;;;5071780;28;20210;-76
2022/01/24 13:04:11;;;;;;;8.60;5.20;;;7.40;99.90;;;;;;5073136;28;20229;-77
2022/01/24 13:06:46;;;;;;;8.73;4.73;;;7.50;99.90;;;;;;5072407;28;20183;-77
2022/01/24 13:09:24;;;;;;;8.60;5.07;;;7.50;99.90;;;;;;5072721;28;20884;-77
2022/01/24 13:11:53;;;;;;;8.03;4.53;;;7.40;99.90;;;;;;5068248;28;20203;-77
2022/01/24 13:14:27;;;;;;;7.13;4.73;;;7.30;99.90;;;;;;5070059;28;20583;-78
2022/01/24 13:25:11;;;;;;;5.90;3.57;;;7.30;99.90;;;;;;5058640;28;20564;-78
2022/01/24 13:27:48;;;;;;;7.27;4.27;;;7.30;99.90;;;;;;5070803;28;20210;-78
2022/01/24 13:30:22;;;;;;;6.97;3.80;;;7.30;99.90;;;;;;5068812;28;20281;-77
2022/01/24 13:32:50;;;;;;;7.00;4.30;;;7.40;99.90;;;;;;5052908;28;20691;-77
2022/01/24 13:35:16;;;;;;;7.57;4.17;;;7.30;99.90;;;;;;5052847;28;20203;-79
2022/01/24 13:37:42;;;;;;;6.93;4.90;;;7.30;99.90;;;;;;5052551;28;20290;-77
2022/01/24 13:40:08;;;;;;;7.37;4.90;;;7.20;99.90;;;;;;5066316;28;20306;-77
2022/01/24 13:42:35;;;;;;;9.20;6.13;;;7.20;99.90;;;;;;5054476;28;20274;-78
2022/01/24 13:45:00;;;;;;;8.37;4.40;;;7.20;99.90;;;;;;5052448;28;20553;-77
2022/01/24 13:47:26;;;;;;;8.67;4.97;;;7.20;99.90;;;;;;5050957;28;20211;-75
2022/01/24 13:49:51;;;;;;;8.23;5.47;;;7.00;99.90;;;;;;5052226;28;20293;-77
2022/01/24 13:52:21;;;;;;;7.57;5.63;;;6.80;99.90;;;;;;5052262;28;20220;-77
2022/01/24 13:54:46;;;;;;;12.10;6.30;;;6.80;99.90;;;;;;5052519;28;20675;-78
2022/01/24 13:57:17;;;;;;;10.50;5.77;;;6.90;99.90;;;;;;5052686;28;20200;-78
2022/01/24 13:59:43;;;;;;;9.50;6.43;;;6.90;99.90;;;;;;5052344;28;20577;-79
2022/01/24 14:02:15;;;;;;;8.47;5.90;;;6.90;99.90;;;;;;5052380;28;20219;-77
2022/01/24 14:04:52;;;;;;;10.17;6.10;;;6.90;99.90;;;;;;5050532;28;20241;-77
2022/01/24 14:07:29;;;;;;;10.00;6.03;;;6.80;99.90;;;;;;5050823;28;20778;-76
2022/01/24 14:09:57;;;;;;;11.20;6.03;;;6.90;99.90;;;;;;5043592;28;20678;-77
2022/01/24 14:12:34;;;;;;;9.90;5.97;;;6.90;99.90;;;;;;5051237;28;20188;-77
2022/01/24 14:15:12;;;;;;;8.60;6.03;;;7.00;99.90;;;;;;5072160;28;20207;-77
2022/01/24 14:20:08;;;;;;;11.13;6.53;;;7.10;99.90;;;;;;5071735;28;20748;-77
2022/01/24 14:22:40;;;;;;;9.40;6.03;;;7.20;99.90;;;;;;5051870;28;20653;-77
2022/01/24 14:25:10;;;;;;;9.90;5.70;;;7.10;99.90;;;;;;5051984;28;20172;-77
2022/01/24 14:27:47;;;;;;;13.30;7.40;;;7.10;99.90;;;;;;5051511;28;20272;-77
2022/01/24 14:30:20;;;;;;;12.80;7.43;;;7.00;99.90;;;;;;5051877;28;20244;-77
2022/01/24 14:33:04;;;;;;;10.07;6.10;;;6.90;99.90;;;;;;5051541;28;20195;-77
2022/01/24 14:35:37;;;;;;;10.13;6.87;;;6.90;99.90;;;;;;5051494;28;20203;-77
2022/01/24 14:38:03;;;;;;;13.33;7.07;;;6.90;99.90;;;;;;5049987;28;20626;-77
2022/01/24 14:40:33;;;;;;;12.43;7.53;;;6.90;99.90;;;;;;5051381;28;20207;-77
2022/01/24 14:44:53;;;;;;;11.40;8.30;;;6.90;99.90;;;;;;5050422;28;20931;-77
2022/01/24 14:45:44;;;;;;;14.67;10.17;;;6.80;99.90;;;;;;5051826;28;20175;-77
2022/01/24 14:48:10;;;;;;;13.53;7.90;;;6.90;99.90;;;;;;5050936;28;20715;-76
2022/01/24 14:50:36;;;;;;;12.23;8.33;;;6.90;99.90;;;;;;5051269;28;20333;-76